首页
METAR-TAF:

METAR-TAF

机场 :

费尔班克斯国际机场

費爾班克斯, 阿拉斯加州, 美国

纬度: 64-48-14N, 经度: 147-52-34W, 海拔: 132米

当前天气观测

该预报发布于52分钟前的08:53 UTC
风速6节,风向北转东北
温度 -6°C
湿度 68%
气压 1005 hPa
能見度: 16.1公里
天空无云

METAR: PAFA 150853Z 03006KT 10SM CLR M06/M11 A2968 RMK AO2 SLP058 T10611111 400111083 56023

时间: 01:45 (09:45 UTC)

预报

该预报发布于4小时和6分钟前的05:39 UTC
预报有效从15日的 06点(UTC)到 16日的 12点(UTC)
风速5节,风向东转东北
能見度: 10公里
天空无云

TAF: PAFA 150539Z 1506/1612 07005KT P6SM SKC

超过4000个机场的气象观测和天气预报(METAR&TAF报告)。

可查询的气象台以黄色和红色小点在地图上表示。

将鼠标移到小点上方,可查看气象台名称。

然后点击查看天气观测和预报。

如需切换地图:点击带黑十字的绿色按钮放大地图;点击带横线的绿色按钮缩小地图;或者点击绿色箭头查看邻近地区的地图。


METAR-TAF: